sensor_id;sensor_type;location;lat;lon;timestamp;temperature;humidity
22674;DHT22;11504;43.334;21.918;2024-01-10T00:03:46;-0.3;100.0
22674;DHT22;11504;43.334;21.918;2024-01-10T00:08:23;-0.3;100.0
22674;DHT22;11504;43.334;21.918;2024-01-10T00:12:59;-0.3;100.0
22674;DHT22;11504;43.334;21.918;2024-01-10T00:45:14;0.1;100.0
22674;DHT22;11504;43.334;21.918;2024-01-10T00:49:50;0.1;100.0
22674;DHT22;11504;43.334;21.918;2024-01-10T00:54:26;0.1;100.0
22674;DHT22;11504;43.334;21.918;2024-01-10T00:59:02;0.1;100.0
22674;DHT22;11504;43.334;21.918;2024-01-10T01:03:38;0.2;100.0
22674;DHT22;11504;43.334;21.918;2024-01-10T01:08:14;0.2;100.0
22674;DHT22;11504;43.334;21.918;2024-01-10T01:12:51;0.2;100.0
22674;DHT22;11504;43.334;21.918;2024-01-10T01:17:28;0.2;100.0
22674;DHT22;11504;43.334;21.918;2024-01-10T01:22:04;0.2;100.0
22674;DHT22;11504;43.334;21.918;2024-01-10T01:26:41;0.2;100.0
22674;DHT22;11504;43.334;21.918;2024-01-10T01:31:17;0.2;100.0
22674;DHT22;11504;43.334;21.918;2024-01-10T02:03:40;-0.1;100.0
22674;DHT22;11504;43.334;21.918;2024-01-10T02:08:16;-0.1;100.0
22674;DHT22;11504;43.334;21.918;2024-01-10T02:12:53;-0.1;100.0
22674;DHT22;11504;43.334;21.918;2024-01-10T02:17:29;-0.1;100.0
22674;DHT22;11504;43.334;21.918;2024-01-10T02:22:06;-0.1;100.0
22674;DHT22;11504;43.334;21.918;2024-01-10T02:26:43;-0.2;100.0
22674;DHT22;11504;43.334;21.918;2024-01-10T02:31:19;-0.2;100.0
22674;DHT22;11504;43.334;21.918;2024-01-10T02:35:56;-0.3;100.0
22674;DHT22;11504;43.334;21.918;2024-01-10T02:40:32;-0.3;100.0
22674;DHT22;11504;43.334;21.918;2024-01-10T02:45:09;-0.3;100.0
22674;DHT22;11504;43.334;21.918;2024-01-10T02:49:45;-0.3;100.0
22674;DHT22;11504;43.334;21.918;2024-01-10T02:54:22;-0.3;100.0
22674;DHT22;11504;43.334;21.918;2024-01-10T02:58:58;-0.3;100.0
22674;DHT22;11504;43.334;21.918;2024-01-10T03:03:34;-0.4;100.0
22674;DHT22;11504;43.334;21.918;2024-01-10T03:08:11;-0.4;100.0
22674;DHT22;11504;43.334;21.918;2024-01-10T03:12:48;-0.4;100.0
22674;DHT22;11504;43.334;21.918;2024-01-10T03:17:24;-0.5;100.0
22674;DHT22;11504;43.334;21.918;2024-01-10T03:22:00;-0.5;100.0
22674;DHT22;11504;43.334;21.918;2024-01-10T03:26:36;-0.4;100.0
22674;DHT22;11504;43.334;21.918;2024-01-10T03:31:13;-0.4;100.0
22674;DHT22;11504;43.334;21.918;2024-01-10T03:35:49;-0.4;100.0
22674;DHT22;11504;43.334;21.918;2024-01-10T03:40:26;-0.4;100.0
22674;DHT22;11504;43.334;21.918;2024-01-10T03:45:04;-0.6;100.0
22674;DHT22;11504;43.334;21.918;2024-01-10T03:49:42;-0.6;100.0
22674;DHT22;11504;43.334;21.918;2024-01-10T03:54:18;-0.7;100.0
22674;DHT22;11504;43.334;21.918;2024-01-10T03:58:55;-0.7;100.0
22674;DHT22;11504;43.334;21.918;2024-01-10T04:03:31;-0.9;100.0
22674;DHT22;11504;43.334;21.918;2024-01-10T04:08:09;-0.9;100.0
22674;DHT22;11504;43.334;21.918;2024-01-10T04:12:46;-0.9;100.0
22674;DHT22;11504;43.334;21.918;2024-01-10T04:17:22;-1.1;100.0
22674;DHT22;11504;43.334;21.918;2024-01-10T04:21:59;-1.1;100.0
22674;DHT22;11504;43.334;21.918;2024-01-10T04:26:37;-0.9;100.0
22674;DHT22;11504;43.334;21.918;2024-01-10T04:31:13;-0.9;100.0
22674;DHT22;11504;43.334;21.918;2024-01-10T04:35:50;-0.7;100.0
22674;DHT22;11504;43.334;21.918;2024-01-10T04:40:26;-0.7;100.0
22674;DHT22;11504;43.334;21.918;2024-01-10T04:45:04;-0.6;100.0
22674;DHT22;11504;43.334;21.918;2024-01-10T04:49:42;-0.6;100.0
22674;DHT22;11504;43.334;21.918;2024-01-10T04:54:18;-0.5;100.0
22674;DHT22;11504;43.334;21.918;2024-01-10T04:58:55;-0.5;100.0
22674;DHT22;11504;43.334;21.918;2024-01-10T05:03:31;-0.6;100.0
22674;DHT22;11504;43.334;21.918;2024-01-10T05:08:07;-0.6;100.0
22674;DHT22;11504;43.334;21.918;2024-01-10T05:12:43;-0.6;100.0
22674;DHT22;11504;43.334;21.918;2024-01-10T05:17:21;-0.8;100.0
22674;DHT22;11504;43.334;21.918;2024-01-10T05:21:57;-0.8;100.0
22674;DHT22;11504;43.334;21.918;2024-01-10T05:26:34;-0.8;100.0
22674;DHT22;11504;43.334;21.918;2024-01-10T05:31:10;-0.8;100.0
22674;DHT22;11504;43.334;21.918;2024-01-10T05:35:47;-0.8;100.0
22674;DHT22;11504;43.334;21.918;2024-01-10T05:40:23;-0.8;100.0
22674;DHT22;11504;43.334;21.918;2024-01-10T05:45:00;-0.8;100.0
22674;DHT22;11504;43.334;21.918;2024-01-10T05:49:37;-0.8;100.0
22674;DHT22;11504;43.334;21.918;2024-01-10T05:54:13;-0.9;100.0
22674;DHT22;11504;43.334;21.918;2024-01-10T05:58:49;-0.9;100.0
22674;DHT22;11504;43.334;21.918;2024-01-10T06:03:25;-0.9;100.0
22674;DHT22;11504;43.334;21.918;2024-01-10T06:08:01;-1.0;100.0
22674;DHT22;11504;43.334;21.918;2024-01-10T06:12:38;-1.0;100.0
22674;DHT22;11504;43.334;21.918;2024-01-10T06:17:15;-1.0;100.0
22674;DHT22;11504;43.334;21.918;2024-01-10T06:21:51;-1.0;100.0
22674;DHT22;11504;43.334;21.918;2024-01-10T06:26:27;-1.0;100.0
22674;DHT22;11504;43.334;21.918;2024-01-10T06:31:04;-1.0;100.0
22674;DHT22;11504;43.334;21.918;2024-01-10T06:35:41;-1.0;100.0
22674;DHT22;11504;43.334;21.918;2024-01-10T06:40:18;-1.0;100.0
22674;DHT22;11504;43.334;21.918;2024-01-10T06:44:54;-1.0;100.0
22674;DHT22;11504;43.334;21.918;2024-01-10T06:49:31;-1.0;100.0
22674;DHT22;11504;43.334;21.918;2024-01-10T07:07:56;2.8;100.0
22674;DHT22;11504;43.334;21.918;2024-01-10T07:12:32;2.8;100.0
22674;DHT22;11504;43.334;21.918;2024-01-10T07:17:10;2.8;100.0
22674;DHT22;11504;43.334;21.918;2024-01-10T07:21:46;2.8;100.0
22674;DHT22;11504;43.334;21.918;2024-01-10T07:26:22;4.2;100.0
22674;DHT22;11504;43.334;21.918;2024-01-10T07:30:58;4.2;100.0
22674;DHT22;11504;43.334;21.918;2024-01-10T07:35:34;5.6;100.0
22674;DHT22;11504;43.334;21.918;2024-01-10T07:40:10;5.6;100.0
22674;DHT22;11504;43.334;21.918;2024-01-10T07:44:47;6.4;100.0
22674;DHT22;11504;43.334;21.918;2024-01-10T07:49:23;6.4;100.0
22674;DHT22;11504;43.334;21.918;2024-01-10T07:53:59;7.2;100.0
22674;DHT22;11504;43.334;21.918;2024-01-10T07:58:35;7.2;100.0
22674;DHT22;11504;43.334;21.918;2024-01-10T08:03:12;7.2;100.0
22674;DHT22;11504;43.334;21.918;2024-01-10T08:07:48;8.0;100.0
22674;DHT22;11504;43.334;21.918;2024-01-10T08:12:24;8.0;100.0
22674;DHT22;11504;43.334;21.918;2024-01-10T08:17:01;8.7;100.0
22674;DHT22;11504;43.334;21.918;2024-01-10T08:21:38;8.7;100.0
22674;DHT22;11504;43.334;21.918;2024-01-10T08:26:14;8.7;100.0
22674;DHT22;11504;43.334;21.918;2024-01-10T08:30:51;8.7;100.0
22674;DHT22;11504;43.334;21.918;2024-01-10T08:44:43;9.7;100.0
22674;DHT22;11504;43.334;21.918;2024-01-10T08:49:19;9.7;100.0
22674;DHT22;11504;43.334;21.918;2024-01-10T08:53:55;9.7;100.0
22674;DHT22;11504;43.334;21.918;2024-01-10T08:58:32;9.7;100.0
22674;DHT22;11504;43.334;21.918;2024-01-10T09:03:08;9.7;100.0
22674;DHT22;11504;43.334;21.918;2024-01-10T09:07:45;10.1;100.0
22674;DHT22;11504;43.334;21.918;2024-01-10T09:12:22;10.1;100.0
22674;DHT22;11504;43.334;21.918;2024-01-10T09:16:59;10.6;100.0
22674;DHT22;11504;43.334;21.918;2024-01-10T09:21:36;10.6;100.0
22674;DHT22;11504;43.334;21.918;2024-01-10T09:26:15;10.8;100.0
22674;DHT22;11504;43.334;21.918;2024-01-10T09:30:52;10.8;100.0
22674;DHT22;11504;43.334;21.918;2024-01-10T09:35:29;10.9;100.0
22674;DHT22;11504;43.334;21.918;2024-01-10T09:40:15;10.9;100.0
22674;DHT22;11504;43.334;21.918;2024-01-10T09:44:53;10.0;100.0
22674;DHT22;11504;43.334;21.918;2024-01-10T09:49:30;10.0;100.0
22674;DHT22;11504;43.334;21.918;2024-01-10T09:54:07;9.2;100.0
22674;DHT22;11504;43.334;21.918;2024-01-10T09:58:50;9.2;100.0
22674;DHT22;11504;43.334;21.918;2024-01-10T10:03:27;9.2;100.0
22674;DHT22;11504;43.334;21.918;2024-01-10T10:08:12;8.9;100.0
22674;DHT22;11504;43.334;21.918;2024-01-10T10:12:52;8.9;100.0
22674;DHT22;11504;43.334;21.918;2024-01-10T10:17:29;8.6;100.0
22674;DHT22;11504;43.334;21.918;2024-01-10T10:22:09;8.6;100.0
22674;DHT22;11504;43.334;21.918;2024-01-10T10:26:47;8.2;100.0
22674;DHT22;11504;43.334;21.918;2024-01-10T10:31:25;8.2;100.0
22674;DHT22;11504;43.334;21.918;2024-01-10T10:36:04;7.7;100.0
22674;DHT22;11504;43.334;21.918;2024-01-10T10:40:42;7.7;100.0
22674;DHT22;11504;43.334;21.918;2024-01-10T10:45:19;7.5;100.0
22674;DHT22;11504;43.334;21.918;2024-01-10T10:50:00;7.5;100.0
22674;DHT22;11504;43.334;21.918;2024-01-10T10:54:40;7.3;100.0
22674;DHT22;11504;43.334;21.918;2024-01-10T10:59:26;7.3;100.0
22674;DHT22;11504;43.334;21.918;2024-01-10T11:04:04;7.1;100.0
22674;DHT22;11504;43.334;21.918;2024-01-10T11:08:57;7.1;100.0
22674;DHT22;11504;43.334;21.918;2024-01-10T11:14:32;6.9;100.0
22674;DHT22;11504;43.334;21.918;2024-01-10T11:20:17;6.9;100.0
22674;DHT22;11504;43.334;21.918;2024-01-10T11:24:58;6.4;100.0
22674;DHT22;11504;43.334;21.918;2024-01-10T11:29:38;6.4;100.0
22674;DHT22;11504;43.334;21.918;2024-01-10T11:34:14;6.0;100.0
22674;DHT22;11504;43.334;21.918;2024-01-10T11:39:04;6.0;100.0
22674;DHT22;11504;43.334;21.918;2024-01-10T11:43:40;6.0;100.0
22674;DHT22;11504;43.334;21.918;2024-01-10T11:48:26;5.7;100.0
22674;DHT22;11504;43.334;21.918;2024-01-10T11:53:03;5.7;100.0
22674;DHT22;11504;43.334;21.918;2024-01-10T11:57:40;5.4;100.0
22674;DHT22;11504;43.334;21.918;2024-01-10T12:02:20;5.4;100.0
22674;DHT22;11504;43.334;21.918;2024-01-10T12:06:58;5.3;100.0
22674;DHT22;11504;43.334;21.918;2024-01-10T12:11:35;5.3;100.0
22674;DHT22;11504;43.334;21.918;2024-01-10T12:16:13;5.2;100.0
22674;DHT22;11504;43.334;21.918;2024-01-10T12:20:51;5.2;100.0
22674;DHT22;11504;43.334;21.918;2024-01-10T12:25:27;5.2;100.0
22674;DHT22;11504;43.334;21.918;2024-01-10T12:30:08;5.2;100.0
22674;DHT22;11504;43.334;21.918;2024-01-10T12:34:45;5.1;100.0
22674;DHT22;11504;43.334;21.918;2024-01-10T12:39:22;5.1;100.0
22674;DHT22;11504;43.334;21.918;2024-01-10T12:44:01;5.1;100.0
22674;DHT22;11504;43.334;21.918;2024-01-10T12:48:42;5.1;100.0
22674;DHT22;11504;43.334;21.918;2024-01-10T12:53:18;5.1;100.0
22674;DHT22;11504;43.334;21.918;2024-01-10T12:57:54;5.1;100.0
22674;DHT22;11504;43.334;21.918;2024-01-10T13:02:31;5.1;100.0
22674;DHT22;11504;43.334;21.918;2024-01-10T13:07:07;5.1;100.0
22674;DHT22;11504;43.334;21.918;2024-01-10T13:11:44;5.1;100.0
22674;DHT22;11504;43.334;21.918;2024-01-10T13:16:21;5.1;100.0
22674;DHT22;11504;43.334;21.918;2024-01-10T13:20:58;5.1;100.0
22674;DHT22;11504;43.334;21.918;2024-01-10T13:25:36;5.0;100.0
22674;DHT22;11504;43.334;21.918;2024-01-10T13:30:13;5.0;100.0
22674;DHT22;11504;43.334;21.918;2024-01-10T13:34:50;5.0;100.0
22674;DHT22;11504;43.334;21.918;2024-01-10T13:39:26;5.0;100.0
22674;DHT22;11504;43.334;21.918;2024-01-10T13:44:03;4.9;100.0
22674;DHT22;11504;43.334;21.918;2024-01-10T13:48:39;4.9;100.0
22674;DHT22;11504;43.334;21.918;2024-01-10T13:53:15;4.9;100.0
22674;DHT22;11504;43.334;21.918;2024-01-10T13:57:51;4.8;100.0
22674;DHT22;11504;43.334;21.918;2024-01-10T14:02:27;4.8;100.0
22674;DHT22;11504;43.334;21.918;2024-01-10T14:07:04;4.8;100.0
22674;DHT22;11504;43.334;21.918;2024-01-10T14:11:40;4.8;100.0
22674;DHT22;11504;43.334;21.918;2024-01-10T14:16:16;4.7;100.0
22674;DHT22;11504;43.334;21.918;2024-01-10T14:20:52;4.7;100.0
22674;DHT22;11504;43.334;21.918;2024-01-10T14:25:28;4.6;100.0
22674;DHT22;11504;43.334;21.918;2024-01-10T14:30:07;4.6;100.0
22674;DHT22;11504;43.334;21.918;2024-01-10T14:34:45;4.4;100.0
22674;DHT22;11504;43.334;21.918;2024-01-10T14:39:21;4.4;100.0
22674;DHT22;11504;43.334;21.918;2024-01-10T14:43:58;4.4;100.0
22674;DHT22;11504;43.334;21.918;2024-01-10T14:48:36;4.2;100.0
22674;DHT22;11504;43.334;21.918;2024-01-10T14:53:13;4.2;100.0
22674;DHT22;11504;43.334;21.918;2024-01-10T14:57:49;3.9;100.0
22674;DHT22;11504;43.334;21.918;2024-01-10T15:02:26;3.9;100.0
22674;DHT22;11504;43.334;21.918;2024-01-10T15:07:04;3.8;100.0
22674;DHT22;11504;43.334;21.918;2024-01-10T15:11:42;3.8;100.0
22674;DHT22;11504;43.334;21.918;2024-01-10T15:16:18;3.7;100.0
22674;DHT22;11504;43.334;21.918;2024-01-10T15:20:55;3.7;100.0
22674;DHT22;11504;43.334;21.918;2024-01-10T15:25:31;3.4;100.0
22674;DHT22;11504;43.334;21.918;2024-01-10T15:30:10;3.4;100.0
22674;DHT22;11504;43.334;21.918;2024-01-10T15:34:47;3.2;100.0
22674;DHT22;11504;43.334;21.918;2024-01-10T15:39:24;3.2;100.0
22674;DHT22;11504;43.334;21.918;2024-01-10T15:44:00;3.2;100.0
22674;DHT22;11504;43.334;21.918;2024-01-10T15:48:36;3.0;100.0
22674;DHT22;11504;43.334;21.918;2024-01-10T15:53:12;3.0;100.0
22674;DHT22;11504;43.334;21.918;2024-01-10T15:57:49;2.7;100.0
22674;DHT22;11504;43.334;21.918;2024-01-10T16:02:27;2.7;100.0
22674;DHT22;11504;43.334;21.918;2024-01-10T16:07:04;2.5;100.0
22674;DHT22;11504;43.334;21.918;2024-01-10T16:11:42;2.5;100.0
22674;DHT22;11504;43.334;21.918;2024-01-10T16:16:23;2.3;100.0
22674;DHT22;11504;43.334;21.918;2024-01-10T16:21:04;2.3;100.0
22674;DHT22;11504;43.334;21.918;2024-01-10T16:25:41;2.2;100.0
22674;DHT22;11504;43.334;21.918;2024-01-10T16:30:17;2.2;100.0
22674;DHT22;11504;43.334;21.918;2024-01-10T16:34:54;2.0;100.0
22674;DHT22;11504;43.334;21.918;2024-01-10T16:39:30;2.0;100.0
22674;DHT22;11504;43.334;21.918;2024-01-10T16:44:06;1.8;100.0
22674;DHT22;11504;43.334;21.918;2024-01-10T16:48:42;1.8;100.0
22674;DHT22;11504;43.334;21.918;2024-01-10T16:53:18;1.8;100.0
22674;DHT22;11504;43.334;21.918;2024-01-10T16:57:55;1.7;100.0
22674;DHT22;11504;43.334;21.918;2024-01-10T17:02:31;1.7;100.0
22674;DHT22;11504;43.334;21.918;2024-01-10T17:07:07;1.7;100.0
22674;DHT22;11504;43.334;21.918;2024-01-10T17:11:44;1.7;100.0
22674;DHT22;11504;43.334;21.918;2024-01-10T17:16:20;1.7;100.0
22674;DHT22;11504;43.334;21.918;2024-01-10T17:20:56;1.7;100.0
22674;DHT22;11504;43.334;21.918;2024-01-10T17:25:32;1.7;100.0
22674;DHT22;11504;43.334;21.918;2024-01-10T17:30:10;1.7;100.0
22674;DHT22;11504;43.334;21.918;2024-01-10T17:34:48;1.7;100.0
22674;DHT22;11504;43.334;21.918;2024-01-10T17:39:24;1.7;100.0
22674;DHT22;11504;43.334;21.918;2024-01-10T17:44:00;1.7;100.0
22674;DHT22;11504;43.334;21.918;2024-01-10T17:48:37;1.6;100.0
22674;DHT22;11504;43.334;21.918;2024-01-10T17:53:13;1.6;100.0
22674;DHT22;11504;43.334;21.918;2024-01-10T17:57:49;1.6;100.0
22674;DHT22;11504;43.334;21.918;2024-01-10T18:02:25;1.6;100.0
22674;DHT22;11504;43.334;21.918;2024-01-10T18:07:02;1.5;100.0
22674;DHT22;11504;43.334;21.918;2024-01-10T18:11:38;1.5;100.0
22674;DHT22;11504;43.334;21.918;2024-01-10T18:16:14;1.3;100.0
22674;DHT22;11504;43.334;21.918;2024-01-10T18:20:50;1.3;100.0
22674;DHT22;11504;43.334;21.918;2024-01-10T18:25:26;1.4;100.0
22674;DHT22;11504;43.334;21.918;2024-01-10T18:30:04;1.4;100.0
22674;DHT22;11504;43.334;21.918;2024-01-10T18:34:43;1.4;100.0
22674;DHT22;11504;43.334;21.918;2024-01-10T18:39:20;1.4;100.0
22674;DHT22;11504;43.334;21.918;2024-01-10T18:43:56;1.4;100.0
22674;DHT22;11504;43.334;21.918;2024-01-10T18:48:32;1.2;100.0
22674;DHT22;11504;43.334;21.918;2024-01-10T18:53:09;1.2;100.0
22674;DHT22;11504;43.334;21.918;2024-01-10T18:57:45;0.9;100.0
22674;DHT22;11504;43.334;21.918;2024-01-10T19:02:21;0.9;100.0
22674;DHT22;11504;43.334;21.918;2024-01-10T19:06:58;0.6;100.0
22674;DHT22;11504;43.334;21.918;2024-01-10T19:11:34;0.6;100.0
22674;DHT22;11504;43.334;21.918;2024-01-10T19:16:10;0.4;100.0
22674;DHT22;11504;43.334;21.918;2024-01-10T19:20:46;0.4;100.0
22674;DHT22;11504;43.334;21.918;2024-01-10T19:25:23;0.4;100.0
22674;DHT22;11504;43.334;21.918;2024-01-10T19:29:59;0.4;100.0
22674;DHT22;11504;43.334;21.918;2024-01-10T19:48:27;-0.1;100.0
22674;DHT22;11504;43.334;21.918;2024-01-10T19:53:03;-0.1;100.0
22674;DHT22;11504;43.334;21.918;2024-01-10T19:57:40;-0.1;100.0
22674;DHT22;11504;43.334;21.918;2024-01-10T20:02:16;-0.1;100.0
22674;DHT22;11504;43.334;21.918;2024-01-10T20:06:53;-0.1;100.0
22674;DHT22;11504;43.334;21.918;2024-01-10T20:11:29;-0.1;100.0
22674;DHT22;11504;43.334;21.918;2024-01-10T20:25:21;-0.1;100.0
22674;DHT22;11504;43.334;21.918;2024-01-10T20:29:58;-0.1;100.0
22674;DHT22;11504;43.334;21.918;2024-01-10T20:34:35;-0.1;100.0
22674;DHT22;11504;43.334;21.918;2024-01-10T20:39:11;-0.1;100.0
22674;DHT22;11504;43.334;21.918;2024-01-10T20:43:47;-0.1;100.0
22674;DHT22;11504;43.334;21.918;2024-01-10T20:48:23;-0.4;100.0
22674;DHT22;11504;43.334;21.918;2024-01-10T20:52:59;-0.4;100.0
22674;DHT22;11504;43.334;21.918;2024-01-10T20:57:36;-0.6;100.0
22674;DHT22;11504;43.334;21.918;2024-01-10T21:02:12;-0.6;100.0
22674;DHT22;11504;43.334;21.918;2024-01-10T21:06:48;-0.8;100.0
22674;DHT22;11504;43.334;21.918;2024-01-10T21:11:24;-0.8;100.0
22674;DHT22;11504;43.334;21.918;2024-01-10T21:16:01;-1.0;100.0
22674;DHT22;11504;43.334;21.918;2024-01-10T21:20:38;-1.0;100.0
22674;DHT22;11504;43.334;21.918;2024-01-10T21:25:15;-1.2;100.0
22674;DHT22;11504;43.334;21.918;2024-01-10T21:29:51;-1.2;100.0
22674;DHT22;11504;43.334;21.918;2024-01-10T21:34:28;-1.3;100.0
22674;DHT22;11504;43.334;21.918;2024-01-10T21:39:04;-1.3;100.0
22674;DHT22;11504;43.334;21.918;2024-01-10T21:43:41;-1.3;100.0
22674;DHT22;11504;43.334;21.918;2024-01-10T21:48:17;-1.4;100.0
22674;DHT22;11504;43.334;21.918;2024-01-10T21:52:54;-1.4;100.0
22674;DHT22;11504;43.334;21.918;2024-01-10T21:57:30;-1.5;100.0
22674;DHT22;11504;43.334;21.918;2024-01-10T22:02:06;-1.5;100.0
22674;DHT22;11504;43.334;21.918;2024-01-10T22:06:43;-1.6;100.0
22674;DHT22;11504;43.334;21.918;2024-01-10T22:11:19;-1.6;100.0
22674;DHT22;11504;43.334;21.918;2024-01-10T22:15:55;-1.7;100.0
22674;DHT22;11504;43.334;21.918;2024-01-10T22:20:31;-1.7;100.0
22674;DHT22;11504;43.334;21.918;2024-01-10T22:25:08;-1.7;100.0
22674;DHT22;11504;43.334;21.918;2024-01-10T22:29:45;-1.7;100.0
22674;DHT22;11504;43.334;21.918;2024-01-10T22:34:21;-1.7;100.0
22674;DHT22;11504;43.334;21.918;2024-01-10T22:38:58;-1.7;100.0
22674;DHT22;11504;43.334;21.918;2024-01-10T22:43:34;-1.7;100.0
22674;DHT22;11504;43.334;21.918;2024-01-10T22:48:11;-2.1;100.0
22674;DHT22;11504;43.334;21.918;2024-01-10T22:52:47;-2.1;100.0
22674;DHT22;11504;43.334;21.918;2024-01-10T22:57:24;-2.5;100.0
22674;DHT22;11504;43.334;21.918;2024-01-10T23:02:01;-2.5;100.0
22674;DHT22;11504;43.334;21.918;2024-01-10T23:06:37;-2.5;100.0
22674;DHT22;11504;43.334;21.918;2024-01-10T23:11:14;-2.5;100.0
22674;DHT22;11504;43.334;21.918;2024-01-10T23:15:51;-2.5;100.0
22674;DHT22;11504;43.334;21.918;2024-01-10T23:20:27;-2.5;100.0
22674;DHT22;11504;43.334;21.918;2024-01-10T23:25:05;-2.4;100.0
22674;DHT22;11504;43.334;21.918;2024-01-10T23:29:42;-2.4;100.0
22674;DHT22;11504;43.334;21.918;2024-01-10T23:34:18;-2.4;100.0
22674;DHT22;11504;43.334;21.918;2024-01-10T23:38:54;-2.3;100.0
22674;DHT22;11504;43.334;21.918;2024-01-10T23:43:31;-2.3;100.0
22674;DHT22;11504;43.334;21.918;2024-01-10T23:48:07;-2.3;100.0
22674;DHT22;11504;43.334;21.918;2024-01-10T23:52:44;-2.3;100.0
22674;DHT22;11504;43.334;21.918;2024-01-10T23:57:20;-2.4;100.0
